PWSweather.com
Personal Weather Stations
Station Observations
KNHRINDG3
Converse Meadow Pond, Rindge, NH 03461

Converse Meadow PondRindge, NH 03461

Lat: 42.74, Lon: -71.98

Elevation: 1060

Station Type: Davis Vantage Pro 2

http://nhwoodworker.com/weather/index.php

High Low Average
Temperature 39.8°F4.3°C 18.2°F-7.7°C 31.9°F-0.1°C
Dew Point 32.3°F0.2°C 15.4°F-9.2°C 25.4°F-3.7°C
Winds 4.6 mph 7.4 kmh Calm Calm 1.0 mph SW1.6 kmh SW
Wind Gusts 11.5 mph18.5 kmh -- 3.0 mph4.8 kmh
Humidity 90% 56% 77%
Pressure 30.04 in1017.3 mb 29.69 in1005.4 mb -
Precipitation 0.01 in0.3 mm - -
Hour Temp Dew Point Humidity Winds Wind Gusts Pressure Precip Precip Rate Daily Precip Total
12:00 AM 19.3°F-7.1°C 16.0°F-8.9°C 87% Calm Calm -- 30.06 in1017.9 mb - 0.00 in0.0 mm 0.00 in0.0 mm
12:10 AM 19.1°F-7.2°C 15.8°F-9.0°C 87% Calm Calm -- 30.05 in1017.6 mb - 0.00 in0.0 mm 0.00 in0.0 mm
12:20 AM 18.8°F-7.3°C 15.8°F-9.0°C 88% Calm Calm -- 30.05 in1017.6 mb - 0.00 in0.0 mm 0.00 in0.0 mm
12:30 AM 18.6°F-7.4°C 15.6°F-9.1°C 88% Calm Calm -- 30.05 in1017.6 mb - 0.00 in0.0 mm 0.00 in0.0 mm
12:40 AM 18.3°F-7.6°C 15.3°F-9.3°C 88% Calm Calm -- 30.04 in1017.3 mb - 0.00 in0.0 mm 0.00 in0.0 mm
12:50 AM 18.2°F-7.7°C 15.5°F-9.2°C 89% Calm Calm -- 30.05 in1017.6 mb - 0.00 in0.0 mm 0.00 in0.0 mm
01:00 AM 18.2°F-7.7°C 15.5°F-9.2°C 89% Calm Calm -- 30.04 in1017.3 mb - 0.00 in0.0 mm 0.00 in0.0 mm
01:10 AM 18.2°F-7.7°C 15.5°F-9.2°C 89% Calm Calm -- 30.03 in1016.9 mb - 0.00 in0.0 mm 0.00 in0.0 mm
01:20 AM 18.3°F-7.6°C 15.6°F-9.1°C 89% Calm Calm -- 30.03 in1016.9 mb - 0.00 in0.0 mm 0.00 in0.0 mm
01:30 AM 18.5°F-7.5°C 15.8°F-9.0°C 89% Calm Calm -- 30.04 in1017.3 mb - 0.00 in0.0 mm 0.00 in0.0 mm
01:40 AM 18.4°F-7.6°C 15.4°F-9.2°C 88% Calm Calm -- 30.03 in1016.9 mb - 0.00 in0.0 mm 0.00 in0.0 mm
01:50 AM 18.4°F-7.6°C 15.7°F-9.1°C 89% Calm Calm -- 30.02 in1016.6 mb - 0.00 in0.0 mm 0.00 in0.0 mm
02:00 AM 18.3°F-7.6°C 15.6°F-9.1°C 89% Calm Calm -- 30.02 in1016.6 mb - 0.00 in0.0 mm 0.00 in0.0 mm
02:10 AM 18.4°F-7.6°C 16.0°F-8.9°C 90% Calm Calm -- 30.01 in1016.3 mb - 0.00 in0.0 mm 0.00 in0.0 mm
02:20 AM 18.6°F-7.4°C 16.2°F-8.8°C 90% Calm Calm -- 30.00 in1015.9 mb - 0.00 in0.0 mm 0.00 in0.0 mm
02:30 AM 18.9°F-7.3°C 16.5°F-8.6°C 90% Calm Calm -- 30.00 in1015.9 mb - 0.00 in0.0 mm 0.00 in0.0 mm
02:40 AM 19.2°F-7.1°C 16.7°F-8.5°C 90% Calm Calm -- 29.99 in1015.6 mb - 0.00 in0.0 mm 0.00 in0.0 mm
02:50 AM 19.4°F-7.0°C 16.7°F-8.5°C 89% Calm Calm -- 29.99 in1015.6 mb - 0.00 in0.0 mm 0.00 in0.0 mm
03:00 AM 19.8°F-6.8°C 16.6°F-8.6°C 87% Calm Calm 1.2 mph1.9 kmh 29.98 in1015.2 mb - 0.00 in0.0 mm 0.00 in0.0 mm
03:10 AM 21.4°F-5.9°C 17.1°F-8.3°C 83% Calm Calm -- 29.98 in1015.2 mb - 0.00 in0.0 mm 0.00 in0.0 mm
03:20 AM 22.6°F-5.2°C 18.2°F-7.7°C 83% Calm Calm -- 29.97 in1014.9 mb - 0.00 in0.0 mm 0.00 in0.0 mm
03:30 AM 22.9°F-5.1°C 18.5°F-7.5°C 83% Calm Calm -- 29.96 in1014.6 mb - 0.00 in0.0 mm 0.00 in0.0 mm
03:40 AM 23.3°F-4.8°C 18.1°F-7.7°C 80% Calm Calm -- 29.96 in1014.6 mb - 0.00 in0.0 mm 0.00 in0.0 mm
03:50 AM 25.0°F-3.9°C 17.5°F-8.1°C 73% 1.2 mph WSW1.9 kmh WSW 2.3 mph3.7 kmh 29.95 in1014.2 mb - 0.00 in0.0 mm 0.00 in0.0 mm
04:00 AM 26.1°F-3.3°C 17.6°F-8.0°C 70% Calm Calm 1.2 mph1.9 kmh 29.95 in1014.2 mb - 0.00 in0.0 mm 0.00 in0.0 mm
04:10 AM 27.0°F-2.8°C 17.5°F-8.1°C 67% Calm Calm -- 29.95 in1014.2 mb - 0.00 in0.0 mm 0.00 in0.0 mm
04:20 AM 27.6°F-2.4°C 17.4°F-8.1°C 65% 1.2 mph S1.9 kmh S 1.2 mph1.9 kmh 29.94 in1013.9 mb - 0.00 in0.0 mm 0.00 in0.0 mm
04:30 AM 28.4°F-2.0°C 17.4°F-8.1°C 63% 1.2 mph SW1.9 kmh SW 3.5 mph5.6 kmh 29.94 in1013.9 mb - 0.00 in0.0 mm 0.00 in0.0 mm
04:40 AM 28.8°F-1.8°C 17.0°F-8.3°C 61% Calm Calm 2.3 mph3.7 kmh 29.93 in1013.5 mb - 0.00 in0.0 mm 0.00 in0.0 mm
04:50 AM 29.1°F-1.6°C 17.3°F-8.2°C 61% Calm Calm 1.2 mph1.9 kmh 29.93 in1013.5 mb - 0.00 in0.0 mm 0.00 in0.0 mm
05:00 AM 29.0°F-1.7°C 17.6°F-8.0°C 62% Calm Calm 1.2 mph1.9 kmh 29.93 in1013.5 mb - 0.00 in0.0 mm 0.00 in0.0 mm
05:10 AM 29.2°F-1.6°C 17.4°F-8.1°C 61% 1.2 mph WSW1.9 kmh WSW 2.3 mph3.7 kmh 29.93 in1013.5 mb - 0.00 in0.0 mm 0.00 in0.0 mm
05:20 AM 29.6°F-1.3°C 17.8°F-7.9°C 61% 1.2 mph SW1.9 kmh SW 1.2 mph1.9 kmh 29.92 in1013.2 mb - 0.00 in0.0 mm 0.00 in0.0 mm
05:30 AM 29.7°F-1.3°C 17.9°F-7.8°C 61% 1.2 mph S1.9 kmh S 3.5 mph5.6 kmh 29.91 in1012.9 mb - 0.00 in0.0 mm 0.00 in0.0 mm
05:40 AM 29.9°F-1.2°C 17.7°F-7.9°C 60% 3.5 mph SW5.6 kmh SW 5.8 mph9.3 kmh 29.91 in1012.9 mb - 0.00 in0.0 mm 0.00 in0.0 mm
05:50 AM 30.2°F-1.0°C 17.9°F-7.8°C 60% 2.3 mph WSW3.7 kmh WSW 6.9 mph11.1 kmh 29.90 in1012.5 mb - 0.00 in0.0 mm 0.00 in0.0 mm
06:00 AM 30.4°F-0.9°C 18.5°F-7.5°C 61% 2.3 mph S3.7 kmh S 3.5 mph5.6 kmh 29.90 in1012.5 mb - 0.00 in0.0 mm 0.00 in0.0 mm
06:10 AM 30.6°F-0.8°C 18.7°F-7.4°C 61% 2.3 mph SW3.7 kmh SW 5.8 mph9.3 kmh 29.89 in1012.2 mb - 0.00 in0.0 mm 0.00 in0.0 mm
06:20 AM 30.7°F-0.7°C 18.4°F-7.6°C 60% 1.2 mph WSW1.9 kmh WSW 1.2 mph1.9 kmh 29.89 in1012.2 mb - 0.00 in0.0 mm 0.00 in0.0 mm
06:30 AM 30.8°F-0.7°C 18.5°F-7.5°C 60% 2.3 mph WSW3.7 kmh WSW 3.5 mph5.6 kmh 29.88 in1011.9 mb - 0.00 in0.0 mm 0.00 in0.0 mm
06:40 AM 30.9°F-0.6°C 18.2°F-7.7°C 59% 1.2 mph SW1.9 kmh SW 2.3 mph3.7 kmh 29.88 in1011.9 mb - 0.00 in0.0 mm 0.00 in0.0 mm
06:50 AM 31.0°F-0.6°C 18.7°F-7.4°C 60% 2.3 mph WSW3.7 kmh WSW 3.5 mph5.6 kmh 29.88 in1011.9 mb - 0.00 in0.0 mm 0.00 in0.0 mm
07:00 AM 31.2°F-0.4°C 18.1°F-7.7°C 58% Calm Calm 1.2 mph1.9 kmh 29.88 in1011.9 mb - 0.00 in0.0 mm 0.00 in0.0 mm
07:10 AM 31.4°F-0.3°C 18.7°F-7.4°C 59% 2.3 mph SSW3.7 kmh SSW 3.5 mph5.6 kmh 29.87 in1011.5 mb - 0.00 in0.0 mm 0.00 in0.0 mm
07:20 AM 31.6°F-0.2°C 18.5°F-7.5°C 58% 2.3 mph SW3.7 kmh SW 2.3 mph3.7 kmh 29.86 in1011.2 mb - 0.00 in0.0 mm 0.00 in0.0 mm
07:30 AM 31.9°F-0.1°C 18.0°F-7.8°C 56% 2.3 mph W3.7 kmh W 3.5 mph5.6 kmh 29.85 in1010.8 mb - 0.00 in0.0 mm 0.00 in0.0 mm
07:40 AM 32.1°F0.1°C 18.6°F-7.4°C 57% 1.2 mph SW1.9 kmh SW 4.6 mph7.4 kmh 29.85 in1010.8 mb - 0.00 in0.0 mm 0.00 in0.0 mm
07:50 AM 32.0°F0.0°C 20.4°F-6.4°C 62% 2.3 mph SSW3.7 kmh SSW 4.6 mph7.4 kmh 29.84 in1010.5 mb - 0.00 in0.0 mm 0.00 in0.0 mm
08:00 AM 31.8°F-0.1°C 22.4°F-5.3°C 68% 4.6 mph SW7.4 kmh SW 11.5 mph18.5 kmh 29.84 in1010.5 mb - 0.00 in0.0 mm 0.00 in0.0 mm
08:10 AM 31.4°F-0.3°C 23.4°F-4.8°C 72% 2.3 mph S3.7 kmh S 2.3 mph3.7 kmh 29.84 in1010.5 mb - 0.00 in0.0 mm 0.00 in0.0 mm
08:20 AM 31.0°F-0.6°C 24.3°F-4.3°C 76% 2.3 mph W3.7 kmh W 3.5 mph5.6 kmh 29.84 in1010.5 mb - 0.00 in0.0 mm 0.00 in0.0 mm
08:30 AM 30.6°F-0.8°C 25.2°F-3.8°C 80% 2.3 mph SW3.7 kmh SW 3.5 mph5.6 kmh 29.84 in1010.5 mb - 0.00 in0.0 mm 0.00 in0.0 mm
08:40 AM 30.4°F-0.9°C 25.3°F-3.7°C 81% 1.2 mph S1.9 kmh S 2.3 mph3.7 kmh 29.83 in1010.2 mb - 0.00 in0.0 mm 0.00 in0.0 mm
08:50 AM 30.3°F-0.9°C 25.5°F-3.6°C 82% 2.3 mph NNW3.7 kmh NNW 3.5 mph5.6 kmh 29.83 in1010.2 mb - 0.00 in0.0 mm 0.00 in0.0 mm
09:00 AM 30.3°F-0.9°C 25.8°F-3.4°C 83% 3.5 mph SW5.6 kmh SW 6.9 mph11.1 kmh 29.82 in1009.8 mb - 0.00 in0.0 mm 0.00 in0.0 mm
09:10 AM 30.2°F-1.0°C 26.0°F-3.3°C 84% 2.3 mph SSW3.7 kmh SSW 6.9 mph11.1 kmh 29.81 in1009.5 mb - 0.00 in0.0 mm 0.00 in0.0 mm
09:20 AM 30.3°F-0.9°C 26.0°F-3.3°C 84% 3.5 mph W5.6 kmh W 9.2 mph14.8 kmh 29.81 in1009.5 mb - 0.00 in0.0 mm 0.00 in0.0 mm
09:30 AM 30.3°F-0.9°C 26.0°F-3.3°C 84% 3.5 mph S5.6 kmh S 4.6 mph7.4 kmh 29.81 in1009.5 mb - 0.00 in0.0 mm 0.00 in0.0 mm
09:40 AM 30.5°F-0.8°C 26.0°F-3.3°C 83% 2.3 mph S3.7 kmh S 3.5 mph5.6 kmh 29.80 in1009.1 mb - 0.00 in0.0 mm 0.00 in0.0 mm
09:50 AM 30.7°F-0.7°C 26.1°F-3.3°C 83% 2.3 mph SSE3.7 kmh SSE 4.6 mph7.4 kmh 29.81 in1009.5 mb - 0.00 in0.0 mm 0.00 in0.0 mm
10:00 AM 30.8°F-0.7°C 26.2°F-3.2°C 83% 3.5 mph SSW5.6 kmh SSW 5.8 mph9.3 kmh 29.80 in1009.1 mb - 0.00 in0.0 mm 0.00 in0.0 mm
10:10 AM 30.9°F-0.6°C 26.3°F-3.2°C 83% 2.3 mph SW3.7 kmh SW 3.5 mph5.6 kmh 29.80 in1009.1 mb - 0.00 in0.0 mm 0.00 in0.0 mm
10:20 AM 31.1°F-0.5°C 26.5°F-3.1°C 83% 2.3 mph SW3.7 kmh SW 4.6 mph7.4 kmh 29.80 in1009.1 mb - 0.00 in0.0 mm 0.00 in0.0 mm
10:30 AM 31.3°F-0.4°C 27.0°F-2.8°C 84% 3.5 mph SW5.6 kmh SW 3.5 mph5.6 kmh 29.79 in1008.8 mb - 0.00 in0.0 mm 0.00 in0.0 mm
10:40 AM 31.4°F-0.3°C 27.1°F-2.7°C 84% 3.5 mph S5.6 kmh S 8.1 mph13.0 kmh 29.79 in1008.8 mb - 0.00 in0.0 mm 0.00 in0.0 mm
10:50 AM 31.6°F-0.2°C 27.6°F-2.4°C 85% 2.3 mph WSW3.7 kmh WSW 3.5 mph5.6 kmh 29.79 in1008.8 mb - 0.00 in0.0 mm 0.00 in0.0 mm
11:00 AM 31.7°F-0.2°C 28.0°F-2.2°C 86% 4.6 mph WSW7.4 kmh WSW 3.5 mph5.6 kmh 29.78 in1008.5 mb - 0.00 in0.0 mm 0.00 in0.0 mm
11:20 AM 32.1°F0.1°C 28.7°F-1.8°C 87% 3.5 mph SW5.6 kmh SW 4.6 mph7.4 kmh 29.77 in1008.1 mb - 0.00 in0.0 mm 0.00 in0.0 mm
11:30 AM 32.2°F0.1°C 28.8°F-1.8°C 87% 3.5 mph S5.6 kmh S 4.6 mph7.4 kmh 29.77 in1008.1 mb - 0.00 in0.0 mm 0.00 in0.0 mm
11:40 AM 32.1°F0.1°C 28.9°F-1.7°C 88% 2.3 mph SSW3.7 kmh SSW 4.6 mph7.4 kmh 29.76 in1007.8 mb - 0.00 in0.0 mm 0.00 in0.0 mm
11:50 AM 32.1°F0.1°C 29.2°F-1.6°C 89% 3.5 mph SSW5.6 kmh SSW 6.9 mph11.1 kmh 29.76 in1007.8 mb - 0.00 in0.0 mm 0.00 in0.0 mm
12:00 PM 32.2°F0.1°C 29.3°F-1.5°C 89% 4.6 mph SW7.4 kmh SW 8.1 mph13.0 kmh 29.75 in1007.5 mb - 0.00 in0.0 mm 0.00 in0.0 mm
12:10 PM 32.3°F0.2°C 29.4°F-1.4°C 89% 3.5 mph WSW5.6 kmh WSW 6.9 mph11.1 kmh 29.74 in1007.1 mb - 0.00 in0.0 mm 0.00 in0.0 mm
12:20 PM 32.6°F0.3°C 29.7°F-1.3°C 89% 4.6 mph WSW7.4 kmh WSW 10.4 mph16.7 kmh 29.74 in1007.1 mb - 0.00 in0.0 mm 0.00 in0.0 mm
12:30 PM 33.2°F0.7°C 30.0°F-1.1°C 88% 2.3 mph SW3.7 kmh SW 3.5 mph5.6 kmh 29.74 in1007.1 mb - 0.00 in0.0 mm 0.00 in0.0 mm
12:40 PM 33.5°F0.8°C 30.0°F-1.1°C 87% 4.6 mph SSW7.4 kmh SSW 8.1 mph13.0 kmh 29.74 in1007.1 mb - 0.00 in0.0 mm 0.00 in0.0 mm
12:50 PM 33.7°F0.9°C 30.0°F-1.1°C 86% 3.5 mph SW5.6 kmh SW 6.9 mph11.1 kmh 29.74 in1007.1 mb - 0.00 in0.0 mm 0.00 in0.0 mm
01:00 PM 33.9°F1.1°C 30.2°F-1.0°C 86% 2.3 mph SSW3.7 kmh SSW 5.8 mph9.3 kmh 29.73 in1006.8 mb - 0.00 in0.0 mm 0.00 in0.0 mm
01:10 PM 34.3°F1.3°C 30.5°F-0.8°C 86% Calm Calm 1.2 mph1.9 kmh 29.73 in1006.8 mb - 0.00 in0.0 mm 0.00 in0.0 mm
01:20 PM 34.8°F1.6°C 30.8°F-0.7°C 85% 4.6 mph WSW7.4 kmh WSW 11.5 mph18.5 kmh 29.73 in1006.8 mb - 0.01 in0.3 mm 0.01 in0.3 mm
01:30 PM 35.7°F2.1°C 31.3°F-0.4°C 84% 2.3 mph S3.7 kmh S 6.9 mph11.1 kmh 29.72 in1006.4 mb - 0.01 in0.3 mm 0.01 in0.3 mm
01:40 PM 36.3°F2.4°C 31.3°F-0.4°C 82% 3.5 mph S5.6 kmh S 3.5 mph5.6 kmh 29.72 in1006.4 mb - 0.00 in0.0 mm 0.01 in0.3 mm
01:50 PM 37.2°F2.9°C 31.3°F-0.4°C 79% 2.3 mph S3.7 kmh S 4.6 mph7.4 kmh 29.71 in1006.1 mb - 0.00 in0.0 mm 0.01 in0.3 mm
02:00 PM 38.2°F3.4°C 31.6°F-0.2°C 77% 1.2 mph SW1.9 kmh SW 3.5 mph5.6 kmh 29.71 in1006.1 mb - 0.00 in0.0 mm 0.01 in0.3 mm
02:10 PM 38.0°F3.3°C 31.4°F-0.3°C 77% 3.5 mph S5.6 kmh S 5.8 mph9.3 kmh 29.71 in1006.1 mb - 0.00 in0.0 mm 0.01 in0.3 mm
02:20 PM 37.7°F3.2°C 31.5°F-0.3°C 78% 1.2 mph WSW1.9 kmh WSW 3.5 mph5.6 kmh 29.70 in1005.8 mb - 0.00 in0.0 mm 0.01 in0.3 mm
02:30 PM 38.2°F3.4°C 31.6°F-0.2°C 77% 1.2 mph NW1.9 kmh NW 3.5 mph5.6 kmh 29.70 in1005.8 mb - 0.00 in0.0 mm 0.01 in0.3 mm
02:40 PM 38.4°F3.6°C 31.8°F-0.1°C 77% 3.5 mph SW5.6 kmh SW 6.9 mph11.1 kmh 29.70 in1005.8 mb - 0.00 in0.0 mm 0.01 in0.3 mm
02:50 PM 38.0°F3.3°C 31.4°F-0.3°C 77% 1.2 mph SW1.9 kmh SW 3.5 mph5.6 kmh 29.70 in1005.8 mb - 0.00 in0.0 mm 0.01 in0.3 mm
03:00 PM 37.9°F3.3°C 31.3°F-0.4°C 77% 2.3 mph W3.7 kmh W 3.5 mph5.6 kmh 29.70 in1005.8 mb - 0.00 in0.0 mm 0.01 in0.3 mm
03:10 PM 37.7°F3.2°C 31.1°F-0.5°C 77% 1.2 mph WSW1.9 kmh WSW 8.1 mph13.0 kmh 29.70 in1005.8 mb - 0.00 in0.0 mm 0.01 in0.3 mm
03:20 PM 37.4°F3.0°C 31.2°F-0.4°C 78% 1.2 mph S1.9 kmh S 2.3 mph3.7 kmh 29.69 in1005.4 mb - 0.00 in0.0 mm 0.01 in0.3 mm
03:30 PM 37.2°F2.9°C 31.3°F-0.4°C 79% 2.3 mph SW3.7 kmh SW 3.5 mph5.6 kmh 29.70 in1005.8 mb - 0.00 in0.0 mm 0.01 in0.3 mm
03:40 PM 37.0°F2.8°C 31.1°F-0.5°C 79% 1.2 mph S1.9 kmh S 2.3 mph3.7 kmh 29.69 in1005.4 mb - 0.00 in0.0 mm 0.01 in0.3 mm
03:50 PM 37.2°F2.9°C 31.3°F-0.4°C 79% 1.2 mph S1.9 kmh S 3.5 mph5.6 kmh 29.70 in1005.8 mb - 0.00 in0.0 mm 0.01 in0.3 mm
04:00 PM 37.3°F2.9°C 31.4°F-0.3°C 79% Calm Calm 2.3 mph3.7 kmh 29.70 in1005.8 mb - 0.00 in0.0 mm 0.01 in0.3 mm
04:10 PM 37.5°F3.1°C 31.6°F-0.2°C 79% 3.5 mph S5.6 kmh S 3.5 mph5.6 kmh 29.69 in1005.4 mb - 0.00 in0.0 mm 0.01 in0.3 mm
04:20 PM 38.9°F3.8°C 32.3°F0.2°C 77% 2.3 mph SW3.7 kmh SW 4.6 mph7.4 kmh 29.69 in1005.4 mb - 0.00 in0.0 mm 0.01 in0.3 mm
04:30 PM 39.8°F4.3°C 31.8°F-0.1°C 73% 2.3 mph S3.7 kmh S 5.8 mph9.3 kmh 29.69 in1005.4 mb - 0.00 in0.0 mm 0.01 in0.3 mm
04:40 PM 39.0°F3.9°C 31.4°F-0.3°C 74% 3.5 mph WNW5.6 kmh WNW 9.2 mph14.8 kmh 29.69 in1005.4 mb - 0.00 in0.0 mm 0.01 in0.3 mm
04:50 PM 38.6°F3.7°C 31.0°F-0.6°C 74% 1.2 mph SW1.9 kmh SW 4.6 mph7.4 kmh 29.70 in1005.8 mb - 0.00 in0.0 mm 0.01 in0.3 mm
05:00 PM 38.3°F3.5°C 31.4°F-0.3°C 76% Calm Calm 2.3 mph3.7 kmh 29.70 in1005.8 mb - 0.00 in0.0 mm 0.01 in0.3 mm
05:10 PM 38.4°F3.6°C 31.5°F-0.3°C 76% 1.2 mph SW1.9 kmh SW 2.3 mph3.7 kmh 29.70 in1005.8 mb - 0.00 in0.0 mm 0.01 in0.3 mm
05:20 PM 38.4°F3.6°C 31.5°F-0.3°C 76% 1.2 mph SSW1.9 kmh SSW 2.3 mph3.7 kmh 29.70 in1005.8 mb - 0.00 in0.0 mm 0.01 in0.3 mm
05:30 PM 38.3°F3.5°C 31.1°F-0.5°C 75% 1.2 mph SSW1.9 kmh SSW 1.2 mph1.9 kmh 29.70 in1005.8 mb - 0.00 in0.0 mm 0.01 in0.3 mm
05:40 PM 38.2°F3.4°C 30.6°F-0.8°C 74% 1.2 mph WNW1.9 kmh WNW 5.8 mph9.3 kmh 29.70 in1005.8 mb - 0.00 in0.0 mm 0.01 in0.3 mm
05:50 PM 38.3°F3.5°C 31.1°F-0.5°C 75% Calm Calm 1.2 mph1.9 kmh 29.69 in1005.4 mb - 0.00 in0.0 mm 0.01 in0.3 mm
06:00 PM 38.7°F3.7°C 30.1°F-1.1°C 71% 1.2 mph NNW1.9 kmh NNW 3.5 mph5.6 kmh 29.70 in1005.8 mb - 0.00 in0.0 mm 0.01 in0.3 mm
06:10 PM 38.8°F3.8°C 30.2°F-1.0°C 71% 1.2 mph SW1.9 kmh SW -- 29.70 in1005.8 mb - 0.00 in0.0 mm 0.01 in0.3 mm
06:20 PM 38.7°F3.7°C 30.1°F-1.1°C 71% Calm Calm 2.3 mph3.7 kmh 29.70 in1005.8 mb - 0.00 in0.0 mm 0.01 in0.3 mm
06:30 PM 38.7°F3.7°C 29.8°F-1.2°C 70% 2.3 mph SW3.7 kmh SW 4.6 mph7.4 kmh 29.70 in1005.8 mb - 0.00 in0.0 mm 0.01 in0.3 mm
06:40 PM 38.7°F3.7°C 29.4°F-1.4°C 69% 1.2 mph SSE1.9 kmh SSE 6.9 mph11.1 kmh 29.70 in1005.8 mb - 0.00 in0.0 mm 0.01 in0.3 mm
06:50 PM 38.5°F3.6°C 29.2°F-1.6°C 69% 1.2 mph SE1.9 kmh SE 1.2 mph1.9 kmh 29.71 in1006.1 mb - 0.00 in0.0 mm 0.01 in0.3 mm
07:00 PM 37.9°F3.3°C 29.0°F-1.7°C 70% Calm Calm -- 29.71 in1006.1 mb - 0.00 in0.0 mm 0.01 in0.3 mm
07:10 PM 37.7°F3.2°C 28.4°F-2.0°C 69% 2.3 mph N3.7 kmh N 2.3 mph3.7 kmh 29.71 in1006.1 mb - 0.00 in0.0 mm 0.01 in0.3 mm
07:20 PM 37.3°F2.9°C 28.4°F-2.0°C 70% Calm Calm -- 29.71 in1006.1 mb - 0.00 in0.0 mm 0.01 in0.3 mm
07:30 PM 37.0°F2.8°C 28.5°F-1.9°C 71% 1.2 mph SW1.9 kmh SW 1.2 mph1.9 kmh 29.71 in1006.1 mb - 0.00 in0.0 mm 0.01 in0.3 mm
07:40 PM 36.4°F2.4°C 28.2°F-2.1°C 72% Calm Calm 1.2 mph1.9 kmh 29.71 in1006.1 mb - 0.00 in0.0 mm 0.01 in0.3 mm
07:50 PM 35.8°F2.1°C 28.3°F-2.1°C 74% 2.3 mph NW3.7 kmh NW 3.5 mph5.6 kmh 29.72 in1006.4 mb - 0.00 in0.0 mm 0.01 in0.3 mm
08:00 PM 35.6°F2.0°C 28.1°F-2.2°C 74% 1.2 mph WSW1.9 kmh WSW 4.6 mph7.4 kmh 29.71 in1006.1 mb - 0.00 in0.0 mm 0.01 in0.3 mm
08:10 PM 35.2°F1.8°C 28.1°F-2.2°C 75% 1.2 mph WSW1.9 kmh WSW -- 29.71 in1006.1 mb - 0.00 in0.0 mm 0.01 in0.3 mm
08:20 PM 34.8°F1.6°C 28.0°F-2.2°C 76% 1.2 mph W1.9 kmh W 4.6 mph7.4 kmh 29.72 in1006.4 mb - 0.00 in0.0 mm 0.01 in0.3 mm
08:30 PM 34.6°F1.4°C 27.8°F-2.3°C 76% Calm Calm -- 29.73 in1006.8 mb - 0.00 in0.0 mm 0.01 in0.3 mm
08:40 PM 34.2°F1.2°C 28.1°F-2.2°C 78% 1.2 mph SSW1.9 kmh SSW 5.8 mph9.3 kmh 29.73 in1006.8 mb - 0.00 in0.0 mm 0.01 in0.3 mm
08:50 PM 33.7°F0.9°C 27.9°F-2.3°C 79% 1.2 mph W1.9 kmh W 1.2 mph1.9 kmh 29.73 in1006.8 mb - 0.00 in0.0 mm 0.01 in0.3 mm
09:00 PM 33.4°F0.8°C 27.9°F-2.3°C 80% 1.2 mph WSW1.9 kmh WSW 3.5 mph5.6 kmh 29.73 in1006.8 mb - 0.00 in0.0 mm 0.01 in0.3 mm
09:10 PM 33.3°F0.7°C 27.8°F-2.3°C 80% Calm Calm 3.5 mph5.6 kmh 29.73 in1006.8 mb - 0.00 in0.0 mm 0.01 in0.3 mm
09:20 PM 33.7°F0.9°C 27.9°F-2.3°C 79% Calm Calm -- 29.73 in1006.8 mb - 0.00 in0.0 mm 0.01 in0.3 mm
09:30 PM 33.6°F0.9°C 27.7°F-2.4°C 79% Calm Calm 1.2 mph1.9 kmh 29.73 in1006.8 mb - 0.00 in0.0 mm 0.01 in0.3 mm
09:40 PM 33.5°F0.8°C 27.7°F-2.4°C 79% Calm Calm -- 29.73 in1006.8 mb - 0.00 in0.0 mm 0.01 in0.3 mm
09:50 PM 33.3°F0.7°C 27.8°F-2.3°C 80% 1.2 mph SW1.9 kmh SW 3.5 mph5.6 kmh 29.73 in1006.8 mb - 0.00 in0.0 mm 0.01 in0.3 mm
10:00 PM 33.2°F0.7°C 27.4°F-2.6°C 79% Calm Calm 2.3 mph3.7 kmh 29.73 in1006.8 mb - 0.00 in0.0 mm 0.01 in0.3 mm
10:10 PM 33.3°F0.7°C 27.5°F-2.5°C 79% Calm Calm 1.2 mph1.9 kmh 29.73 in1006.8 mb - 0.00 in0.0 mm 0.01 in0.3 mm
10:20 PM 33.0°F0.6°C 27.2°F-2.7°C 79% Calm Calm 2.3 mph3.7 kmh 29.73 in1006.8 mb - 0.00 in0.0 mm 0.01 in0.3 mm
10:30 PM 32.9°F0.5°C 27.1°F-2.7°C 79% Calm Calm 1.2 mph1.9 kmh 29.73 in1006.8 mb - 0.00 in0.0 mm 0.01 in0.3 mm
10:40 PM 32.8°F0.4°C 27.0°F-2.8°C 79% Calm Calm 1.2 mph1.9 kmh 29.73 in1006.8 mb - 0.00 in0.0 mm 0.01 in0.3 mm
10:50 PM 32.3°F0.2°C 26.8°F-2.9°C 80% Calm Calm -- 29.73 in1006.8 mb - 0.00 in0.0 mm 0.01 in0.3 mm
11:00 PM 32.1°F0.1°C 26.9°F-2.8°C 81% 1.2 mph WNW1.9 kmh WNW 2.3 mph3.7 kmh 29.73 in1006.8 mb - 0.00 in0.0 mm 0.01 in0.3 mm
11:10 PM 32.1°F0.1°C 26.9°F-2.8°C 81% 1.2 mph WSW1.9 kmh WSW 3.5 mph5.6 kmh 29.73 in1006.8 mb - 0.00 in0.0 mm 0.01 in0.3 mm
11:20 PM 32.0°F0.0°C 26.8°F-2.9°C 81% Calm Calm 3.5 mph5.6 kmh 29.73 in1006.8 mb - 0.00 in0.0 mm 0.01 in0.3 mm
11:30 PM 32.0°F0.0°C 27.1°F-2.7°C 82% 1.2 mph SW1.9 kmh SW 3.5 mph5.6 kmh 29.73 in1006.8 mb - 0.00 in0.0 mm 0.01 in0.3 mm
11:40 PM 32.1°F0.1°C 26.9°F-2.8°C 81% Calm Calm 1.2 mph1.9 kmh 29.72 in1006.4 mb - 0.00 in0.0 mm 0.01 in0.3 mm
11:50 PM 32.3°F0.2°C 27.1°F-2.7°C 81% Calm Calm 1.2 mph1.9 kmh 29.72 in1006.4 mb - 0.00 in0.0 mm 0.01 in0.3 mm